Time;durP1;ratioP1;P1;durP2;ratioP2;P2;SDS_P1;SDS_P2;PMS_P1;PMS_P2;Temp;Humidity;BMP_temperature;BMP_pressure;BME280_temperature;BME280_humidity;BME280_pressure;Samples;Min_cycle;Max_cycle;Signal;HPM_P1;HPM_P2
2021/01/19 00:01:24;;;;;;;10.97;9.93;;;-0.60;99.90;;;;;;5002045;28;20181;-78
2021/01/19 00:03:50;;;;;;;11.83;10.37;;;-0.60;99.90;;;;;;5036114;28;20265;-76
2021/01/19 00:06:19;;;;;;;10.77;9.67;;;-0.60;99.90;;;;;;5035964;28;20198;-76
2021/01/19 00:08:44;;;;;;;11.07;9.97;;;-0.50;99.90;;;;;;5036092;28;20213;-76
2021/01/19 00:11:10;;;;;;;13.13;10.67;;;-0.60;99.90;;;;;;5035838;28;20583;-77
2021/01/19 00:13:46;;;;;;;12.20;10.90;;;-0.60;99.90;;;;;;5036261;28;20543;-76
2021/01/19 00:16:11;;;;;;;12.63;10.57;;;-0.60;99.90;;;;;;5031706;28;20214;-76
2021/01/19 00:18:37;;;;;;;14.10;10.63;;;-0.60;99.90;;;;;;5025299;28;20578;-76
2021/01/19 00:21:03;;;;;;;10.77;9.67;;;-0.70;99.90;;;;;;5017965;28;20175;-78
2021/01/19 00:23:29;;;;;;;12.13;10.63;;;-0.60;99.90;;;;;;5035651;28;20173;-76
2021/01/19 00:25:54;;;;;;;11.47;10.20;;;-0.60;99.90;;;;;;5035595;28;20555;-77
2021/01/19 00:28:20;;;;;;;13.07;10.20;;;-0.60;99.90;;;;;;5026924;28;20179;-76
2021/01/19 00:30:46;;;;;;;13.60;10.13;;;-0.60;99.90;;;;;;5035972;28;20653;-76
2021/01/19 00:33:11;;;;;;;13.83;10.13;;;-0.60;99.90;;;;;;5035655;28;20182;-74
2021/01/19 00:35:41;;;;;;;12.10;10.23;;;-0.60;99.90;;;;;;5035344;28;20252;-77
2021/01/19 00:38:24;;;;;;;12.60;9.47;;;-0.60;99.90;;;;;;5033866;28;20216;-76
2021/01/19 00:40:49;;;;;;;10.10;9.10;;;-0.70;99.90;;;;;;5001182;28;20175;-77
2021/01/19 00:43:15;;;;;;;10.77;9.47;;;-0.70;99.90;;;;;;5035242;28;20255;-76
2021/01/19 00:45:41;;;;;;;13.20;10.50;;;-0.80;99.90;;;;;;5035015;28;20174;-77
2021/01/19 00:48:07;;;;;;;14.13;10.67;;;-1.00;99.90;;;;;;5035579;28;20192;-77
2021/01/19 00:50:32;;;;;;;10.97;9.30;;;-1.10;99.90;;;;;;5035277;28;20714;-78
2021/01/19 00:52:58;;;;;;;10.40;9.37;;;-1.10;99.90;;;;;;5017713;28;20219;-78
2021/01/19 00:55:25;;;;;;;13.13;9.23;;;-1.00;99.90;;;;;;5036148;28;20185;-77
2021/01/19 00:58:01;;;;;;;10.83;9.10;;;-1.00;99.90;;;;;;5034679;28;20213;-76
2021/01/19 01:00:27;;;;;;;10.07;8.63;;;-1.00;99.90;;;;;;5035228;28;20177;-76
2021/01/19 01:02:53;;;;;;;11.83;8.50;;;-1.00;99.90;;;;;;5034806;28;20227;-77
2021/01/19 01:05:19;;;;;;;12.80;8.23;;;-0.90;99.90;;;;;;5035063;28;20186;-77
2021/01/19 01:07:45;;;;;;;9.77;8.77;;;-0.90;99.90;;;;;;5034758;28;21599;-77
2021/01/19 01:10:13;;;;;;;10.00;8.43;;;-0.90;99.90;;;;;;5017541;28;20273;-76
2021/01/19 01:12:41;;;;;;;9.83;8.33;;;-1.00;99.90;;;;;;5035203;28;20596;-77
2021/01/19 01:15:17;;;;;;;10.37;8.10;;;-1.00;99.90;;;;;;5034739;28;20182;-79
2021/01/19 01:17:43;;;;;;;12.00;8.53;;;-0.90;99.90;;;;;;5034495;28;20308;-76
2021/01/19 01:20:11;;;;;;;10.10;9.00;;;-1.00;99.90;;;;;;5035228;28;20261;-77
2021/01/19 01:22:46;;;;;;;11.67;8.73;;;-1.00;99.90;;;;;;5034572;28;20176;-77
2021/01/19 01:25:13;;;;;;;9.70;8.60;;;-1.00;99.90;;;;;;5035197;28;20587;-77
2021/01/19 01:27:40;;;;;;;9.73;8.70;;;-1.00;99.90;;;;;;5027187;28;20286;-76
2021/01/19 01:30:09;;;;;;;9.70;8.40;;;-1.00;99.90;;;;;;5033232;28;20186;-77
2021/01/19 01:32:42;;;;;;;10.93;9.20;;;-1.00;99.90;;;;;;5034497;28;20181;-76
2021/01/19 01:35:09;;;;;;;9.00;8.10;;;-1.00;99.90;;;;;;5017126;28;20173;-76
2021/01/19 01:37:35;;;;;;;10.30;8.90;;;-1.10;99.90;;;;;;5034473;28;20209;-76
2021/01/19 01:40:01;;;;;;;9.57;8.57;;;-1.20;99.90;;;;;;5034925;28;20205;-76
2021/01/19 01:42:27;;;;;;;11.90;9.20;;;-1.20;99.90;;;;;;5034772;28;20204;-76
2021/01/19 01:44:52;;;;;;;10.33;9.27;;;-1.20;99.90;;;;;;5016679;28;20208;-78
2021/01/19 01:47:24;;;;;;;10.73;9.07;;;-1.30;99.90;;;;;;5016648;28;20202;-78
2021/01/19 01:49:54;;;;;;;12.90;9.43;;;-1.30;99.90;;;;;;5016452;28;20612;-78
2021/01/19 01:52:22;;;;;;;10.23;8.83;;;-1.40;99.90;;;;;;5034424;28;20204;-78
2021/01/19 01:55:07;;;;;;;13.33;9.53;;;-1.40;99.90;;;;;;5036891;28;20180;-77
2021/01/19 01:57:46;;;;;;;13.00;9.97;;;-1.50;99.90;;;;;;5016116;28;20213;-78
2021/01/19 02:00:13;;;;;;;12.37;9.80;;;-1.50;99.90;;;;;;5035880;28;20263;-77
2021/01/19 02:02:56;;;;;;;14.77;10.57;;;-1.60;99.90;;;;;;5035221;28;20245;-79
2021/01/19 02:05:24;;;;;;;18.87;12.10;;;-1.70;99.90;;;;;;5035385;28;20189;-78
2021/01/19 02:08:27;;;;;;;15.67;11.97;;;-1.70;99.90;;;;;;5037186;28;20249;-78
2021/01/19 02:11:05;;;;;;;11.10;9.90;;;-1.60;99.90;;;;;;5034256;28;20179;-77
2021/01/19 02:13:54;;;;;;;12.27;9.80;;;-1.60;99.90;;;;;;5034479;28;20180;-78
2021/01/19 02:16:33;;;;;;;17.03;11.20;;;-1.60;99.90;;;;;;5030866;28;20207;-77
2021/01/19 02:19:41;;;;;;;12.03;10.67;;;-1.80;99.90;;;;;;5033623;28;20605;-77
2021/01/19 02:22:35;;;;;;;15.60;11.07;;;-1.80;99.90;;;;;;5021014;28;20256;-77
2021/01/19 02:25:39;;;;;;;14.40;9.90;;;-1.80;99.90;;;;;;5033591;28;20185;-77
2021/01/19 02:28:23;;;;;;;12.20;9.37;;;-1.80;99.90;;;;;;5025198;28;20214;-76
2021/01/19 02:31:18;;;;;;;11.30;9.07;;;-1.80;99.90;;;;;;5016460;28;20209;-77
2021/01/19 02:34:06;;;;;;;14.60;10.10;;;-1.80;99.90;;;;;;5033736;28;20181;-77
2021/01/19 02:36:44;;;;;;;13.47;10.30;;;-1.90;99.90;;;;;;5034806;28;20206;-77
2021/01/19 02:39:18;;;;;;;19.27;11.90;;;-1.90;99.90;;;;;;5034302;28;20215;-78
2021/01/19 02:41:46;;;;;;;22.63;12.57;;;-1.90;99.90;;;;;;5035914;28;20184;-78
2021/01/19 02:44:24;;;;;;;27.27;13.53;;;-1.90;99.90;;;;;;5035123;28;20652;-78
2021/01/19 02:46:59;;;;;;;23.13;12.77;;;-1.90;99.90;;;;;;5035493;28;20203;-78
2021/01/19 02:49:26;;;;;;;14.30;10.97;;;-1.90;99.90;;;;;;5035072;28;20259;-78
2021/01/19 02:51:54;;;;;;;19.47;12.87;;;-2.00;99.90;;;;;;5035727;28;20182;-78
2021/01/19 02:54:21;;;;;;;15.93;11.80;;;-2.10;99.90;;;;;;5034944;28;20221;-78
2021/01/19 02:57:05;;;;;;;16.47;12.13;;;-2.10;99.90;;;;;;5035082;28;20216;-78
2021/01/19 02:59:57;;;;;;;15.17;11.60;;;-2.30;99.90;;;;;;5034742;28;20649;-78
2021/01/19 03:02:29;;;;;;;16.27;11.73;;;-2.40;99.90;;;;;;5016902;28;20246;-78
2021/01/19 03:04:59;;;;;;;17.77;12.00;;;-2.50;99.90;;;;;;5034309;28;20174;-78
2021/01/19 03:07:28;;;;;;;14.83;10.37;;;-2.40;99.90;;;;;;5033633;28;20211;-78
2021/01/19 03:09:56;;;;;;;11.97;10.07;;;-2.40;99.90;;;;;;5038457;28;20531;-77
2021/01/19 03:12:24;;;;;;;11.90;10.57;;;-2.40;99.90;;;;;;5037413;28;20175;-76
2021/01/19 03:14:50;;;;;;;13.27;9.90;;;-2.40;99.90;;;;;;5031049;28;20187;-78
2021/01/19 03:17:16;;;;;;;11.07;9.30;;;-2.40;99.90;;;;;;5036367;28;20204;-78
2021/01/19 03:19:43;;;;;;;14.77;10.00;;;-2.50;99.90;;;;;;5035915;28;20209;-78
2021/01/19 03:22:10;;;;;;;11.43;9.63;;;-2.60;99.90;;;;;;5020355;28;20580;-78
2021/01/19 03:24:36;;;;;;;13.00;9.97;;;-2.80;99.90;;;;;;5037756;28;20184;-78
2021/01/19 03:27:04;;;;;;;12.27;9.87;;;-2.90;99.90;;;;;;5061751;23;20231;-74
2021/01/19 03:29:30;;;;;;;15.87;10.77;;;-2.90;99.90;;;;;;5036132;28;20258;-73
2021/01/19 03:31:55;;;;;;;13.53;9.63;;;-2.80;99.90;;;;;;5018724;28;20255;-74
2021/01/19 03:34:21;;;;;;;14.90;10.90;;;-2.70;99.90;;;;;;5036705;28;20653;-73
2021/01/19 03:36:47;;;;;;;15.90;12.80;;;-2.60;99.90;;;;;;5036615;28;20192;-74
2021/01/19 03:39:13;;;;;;;12.43;10.03;;;-2.70;99.90;;;;;;5036350;28;20226;-74
2021/01/19 03:41:39;;;;;;;17.63;10.70;;;-2.80;99.90;;;;;;5018714;28;20532;-74
2021/01/19 03:44:05;;;;;;;12.00;10.23;;;-3.00;99.90;;;;;;5033148;28;20178;-74
2021/01/19 03:46:31;;;;;;;14.23;11.13;;;-3.20;99.90;;;;;;5036091;28;20178;-73
2021/01/19 03:48:58;;;;;;;11.53;10.00;;;-3.40;99.90;;;;;;5036204;28;20256;-74
2021/01/19 03:51:24;;;;;;;15.23;10.73;;;-3.60;99.90;;;;;;5036250;28;20185;-74
2021/01/19 03:53:53;;;;;;;12.93;10.37;;;-3.60;99.90;;;;;;5036165;28;20179;-75
2021/01/19 03:56:19;;;;;;;13.17;10.80;;;-3.60;99.90;;;;;;5036345;28;20175;-74
2021/01/19 03:58:45;;;;;;;16.73;11.23;;;-3.70;99.90;;;;;;5036245;28;20198;-73
2021/01/19 04:01:11;;;;;;;14.03;10.47;;;-3.70;99.90;;;;;;5035959;28;20269;-74
2021/01/19 04:03:38;;;;;;;14.13;10.07;;;-3.80;99.90;;;;;;5036263;28;20171;-73
2021/01/19 04:06:08;;;;;;;15.23;11.10;;;-3.90;99.90;;;;;;5035882;28;20228;-74
2021/01/19 04:08:38;;;;;;;15.60;10.47;;;-3.90;99.90;;;;;;5035780;28;20281;-73
2021/01/19 04:11:07;;;;;;;14.83;11.10;;;-3.90;99.90;;;;;;5036067;28;20257;-74
2021/01/19 04:13:34;;;;;;;19.10;10.70;;;-3.80;99.90;;;;;;5035883;28;20258;-73
2021/01/19 04:16:00;;;;;;;14.23;10.30;;;-3.60;99.90;;;;;;5018171;28;20242;-74
2021/01/19 04:18:25;;;;;;;18.53;13.37;;;-3.40;99.90;;;;;;5035480;28;20226;-74
2021/01/19 04:20:52;;;;;;;17.13;13.03;;;-3.30;99.90;;;;;;5032233;28;20174;-73
2021/01/19 04:23:18;;;;;;;14.57;12.00;;;-3.20;99.90;;;;;;5035685;28;20196;-73
2021/01/19 04:25:45;;;;;;;11.87;10.37;;;-3.10;99.90;;;;;;5035865;28;20257;-74
2021/01/19 04:28:12;;;;;;;14.50;10.93;;;-3.10;99.90;;;;;;5026592;28;20221;-74
2021/01/19 04:30:43;;;;;;;11.97;10.67;;;-3.20;99.90;;;;;;5035759;28;20178;-73
2021/01/19 04:33:11;;;;;;;12.50;9.97;;;-3.20;99.90;;;;;;5035402;28;20710;-73
2021/01/19 04:35:37;;;;;;;11.23;10.03;;;-3.20;99.90;;;;;;5035586;28;20216;-74
2021/01/19 04:38:03;;;;;;;12.70;10.23;;;-3.30;99.90;;;;;;5035387;28;20662;-74
2021/01/19 04:40:29;;;;;;;12.97;10.73;;;-3.40;99.90;;;;;;5017510;28;20202;-73
2021/01/19 04:42:56;;;;;;;14.43;10.33;;;-3.60;99.90;;;;;;5035523;28;20167;-74
2021/01/19 04:45:24;;;;;;;14.87;10.73;;;-3.60;99.90;;;;;;5017832;28;20187;-74
2021/01/19 04:47:51;;;;;;;15.50;11.03;;;-3.80;99.90;;;;;;5035372;28;20201;-73
2021/01/19 04:50:17;;;;;;;13.87;10.20;;;-3.90;99.90;;;;;;5035392;28;20236;-74
2021/01/19 04:52:46;;;;;;;14.40;10.43;;;-3.90;99.90;;;;;;5035057;28;20641;-73
2021/01/19 04:55:25;;;;;;;14.67;11.60;;;-4.00;99.90;;;;;;5034964;28;20186;-74
2021/01/19 04:58:07;;;;;;;15.53;11.90;;;-4.00;99.90;;;;;;5035067;28;20230;-74
2021/01/19 05:00:35;;;;;;;14.10;11.33;;;-4.10;99.90;;;;;;5032084;28;20541;-74
2021/01/19 05:03:01;;;;;;;17.30;11.13;;;-4.20;99.90;;;;;;5024657;28;20201;-73
2021/01/19 05:05:36;;;;;;;13.90;11.10;;;-4.30;99.90;;;;;;5025712;28;20642;-74
2021/01/19 05:08:20;;;;;;;14.17;11.60;;;-4.30;99.90;;;;;;5017855;28;20567;-74
2021/01/19 05:10:59;;;;;;;14.50;11.13;;;-4.30;99.90;;;;;;5015100;28;20672;-74
2021/01/19 05:13:55;;;;;;;19.73;12.00;;;-4.30;99.90;;;;;;5036832;28;20182;-74
2021/01/19 05:16:27;;;;;;;13.90;10.67;;;-4.30;99.90;;;;;;5033894;28;20182;-72
2021/01/19 05:18:53;;;;;;;14.33;10.87;;;-4.40;99.90;;;;;;5034515;28;20714;-73
2021/01/19 05:21:19;;;;;;;16.10;11.20;;;-4.40;99.90;;;;;;5034775;28;20190;-74
2021/01/19 05:23:45;;;;;;;15.30;11.23;;;-4.30;99.90;;;;;;5034784;28;20174;-73
2021/01/19 05:26:17;;;;;;;17.90;12.13;;;-4.30;99.90;;;;;;5034630;28;20182;-73
2021/01/19 05:28:51;;;;;;;16.03;12.23;;;-4.40;99.90;;;;;;5025678;28;20232;-75
2021/01/19 05:31:28;;;;;;;16.70;12.10;;;-4.30;99.90;;;;;;5033495;28;20547;-76
2021/01/19 05:33:54;;;;;;;18.20;13.17;;;-4.10;99.90;;;;;;5034574;28;20182;-72
2021/01/19 05:36:27;;;;;;;21.10;14.50;;;-3.90;99.90;;;;;;5016401;28;20240;-75
2021/01/19 05:38:57;;;;;;;19.60;14.20;;;-3.80;99.90;;;;;;5033021;28;20206;-75
2021/01/19 05:41:26;;;;;;;17.30;12.73;;;-3.80;99.90;;;;;;5034148;28;20252;-75
2021/01/19 05:43:55;;;;;;;23.57;14.63;;;-3.70;99.90;;;;;;5034314;28;20202;-75
2021/01/19 05:46:29;;;;;;;20.07;14.23;;;-3.70;99.90;;;;;;5034153;28;20176;-73
2021/01/19 05:49:00;;;;;;;20.57;14.50;;;-3.70;99.90;;;;;;5033951;28;20201;-76
2021/01/19 05:51:28;;;;;;;18.33;13.50;;;-3.60;99.90;;;;;;5030240;28;20170;-76
2021/01/19 05:53:55;;;;;;;24.93;14.53;;;-3.60;99.90;;;;;;5015643;28;20182;-76
2021/01/19 05:56:22;;;;;;;19.63;13.27;;;-3.70;99.90;;;;;;5045812;28;20179;-75
2021/01/19 05:58:49;;;;;;;20.40;13.47;;;-3.70;99.90;;;;;;5033309;28;20202;-76
2021/01/19 06:01:30;;;;;;;18.87;13.83;;;-3.70;99.90;;;;;;5017878;28;20202;-75
2021/01/19 06:04:00;;;;;;;16.33;13.33;;;-3.60;99.90;;;;;;5023019;28;20550;-76
2021/01/19 06:06:27;;;;;;;21.87;16.10;;;-3.60;99.90;;;;;;5016660;28;20249;-75
2021/01/19 06:09:05;;;;;;;20.47;14.93;;;-3.70;99.90;;;;;;5014443;28;20183;-75
2021/01/19 06:11:31;;;;;;;23.37;16.80;;;-3.70;99.90;;;;;;5032814;28;20232;-75
2021/01/19 06:13:57;;;;;;;24.63;16.30;;;-3.70;99.90;;;;;;5033499;28;20210;-75
2021/01/19 06:16:25;;;;;;;24.40;16.63;;;-3.60;99.90;;;;;;5033208;28;20179;-75
2021/01/19 06:18:52;;;;;;;29.03;17.50;;;-3.50;99.90;;;;;;5034530;28;20202;-75
2021/01/19 06:21:28;;;;;;;24.97;17.03;;;-3.40;99.90;;;;;;5027829;28;20206;-73
2021/01/19 06:23:54;;;;;;;30.13;18.77;;;-3.40;99.90;;;;;;5013041;28;20179;-75
2021/01/19 06:26:20;;;;;;;26.70;18.07;;;-3.30;99.90;;;;;;5015268;28;20186;-73
2021/01/19 06:28:45;;;;;;;25.33;17.20;;;-3.30;99.90;;;;;;5023136;28;20187;-75
2021/01/19 06:31:15;;;;;;;26.87;18.10;;;-3.20;99.90;;;;;;5032989;28;20269;-75
2021/01/19 06:33:42;;;;;;;25.40;17.87;;;-3.20;99.90;;;;;;5033531;28;20174;-74
2021/01/19 06:36:09;;;;;;;34.40;19.33;;;-3.20;99.90;;;;;;5033556;28;20266;-75
2021/01/19 06:38:35;;;;;;;31.00;18.83;;;-3.10;99.90;;;;;;5033014;28;20198;-75
2021/01/19 06:41:02;;;;;;;34.00;20.00;;;-3.20;99.90;;;;;;5033374;28;20178;-75
2021/01/19 06:43:37;;;;;;;29.30;19.67;;;-3.30;99.90;;;;;;5033357;28;20183;-75
2021/01/19 06:46:08;;;;;;;32.90;20.83;;;-3.30;99.90;;;;;;5033240;28;20177;-75
2021/01/19 06:48:35;;;;;;;32.57;20.57;;;-3.30;99.90;;;;;;5033065;28;20202;-74
2021/01/19 06:51:05;;;;;;;26.97;17.73;;;-3.40;99.90;;;;;;5033134;28;20185;-75
2021/01/19 06:53:42;;;;;;;34.20;20.47;;;-3.40;99.90;;;;;;5033332;28;20188;-74
2021/01/19 06:56:12;;;;;;;35.97;21.07;;;-3.30;99.90;;;;;;5033256;28;20182;-75
2021/01/19 06:58:59;;;;;;;34.00;18.57;;;-3.30;99.90;;;;;;5032844;28;20234;-74
2021/01/19 07:01:26;;;;;;;32.03;19.87;;;-3.30;99.90;;;;;;5033187;28;20174;-75
2021/01/19 07:04:32;;;;;;;29.37;17.57;;;-3.30;99.90;;;;;;5033249;28;20183;-75
2021/01/19 07:07:04;;;;;;;32.87;19.27;;;-3.40;99.90;;;;;;5015173;28;20204;-75
2021/01/19 07:09:32;;;;;;;47.00;23.13;;;-3.50;99.90;;;;;;5032891;28;20171;-75
2021/01/19 07:12:06;;;;;;;31.77;19.77;;;-3.60;99.90;;;;;;5033212;28;20224;-75
2021/01/19 07:15:09;;;;;;;45.33;22.83;;;-3.70;99.90;;;;;;5033090;28;20212;-75
2021/01/19 07:17:41;;;;;;;34.13;19.90;;;-3.70;99.90;;;;;;4933527;29;20217;-75
2021/01/19 07:20:26;;;;;;;35.77;19.90;;;-3.60;99.90;;;;;;5017658;28;20187;-75
2021/01/19 07:22:59;;;;;;;33.17;18.53;;;-3.50;99.90;;;;;;5032773;28;20204;-75
2021/01/19 07:25:26;;;;;;;30.63;18.73;;;-3.50;99.90;;;;;;5032840;28;20228;-75
2021/01/19 07:27:51;;;;;;;36.37;21.00;;;-3.40;99.90;;;;;;5023919;28;20210;-75
2021/01/19 07:30:20;;;;;;;29.60;18.70;;;-3.40;99.90;;;;;;5033044;28;20225;-75
2021/01/19 07:32:50;;;;;;;36.30;20.83;;;-3.40;99.90;;;;;;5032892;28;20240;-75
2021/01/19 07:35:17;;;;;;;34.07;19.60;;;-3.50;99.90;;;;;;5032733;28;20583;-75
2021/01/19 07:37:43;;;;;;;35.90;19.90;;;-3.50;99.90;;;;;;5032475;28;20229;-75
2021/01/19 07:40:16;;;;;;;39.27;20.77;;;-3.50;99.90;;;;;;5015037;28;20637;-75
2021/01/19 07:42:44;;;;;;;34.37;20.70;;;-3.50;99.90;;;;;;5032577;28;20336;-75
2021/01/19 07:45:10;;;;;;;39.43;21.07;;;-3.50;99.90;;;;;;5032665;28;20170;-75
2021/01/19 07:47:41;;;;;;;35.07;20.13;;;-3.40;99.90;;;;;;5032524;28;20205;-75
2021/01/19 07:50:12;;;;;;;33.37;18.23;;;-3.40;99.90;;;;;;5011821;28;20171;-75
2021/01/19 07:52:45;;;;;;;32.83;19.60;;;-3.40;99.90;;;;;;5031167;28;20225;-74
2021/01/19 07:55:18;;;;;;;33.13;18.87;;;-3.30;99.90;;;;;;5034829;28;20206;-75
2021/01/19 07:57:46;;;;;;;35.30;19.70;;;-3.30;99.90;;;;;;5035935;28;20277;-75
2021/01/19 08:00:21;;;;;;;33.70;20.17;;;-3.30;99.90;;;;;;5036159;28;20232;-75
2021/01/19 08:02:47;;;;;;;36.77;20.00;;;-3.30;99.90;;;;;;5036148;28;20644;-75
2021/01/19 08:05:13;;;;;;;35.67;19.70;;;-3.30;99.90;;;;;;5036039;28;20214;-75
2021/01/19 08:07:42;;;;;;;37.80;20.27;;;-3.30;99.90;;;;;;5018092;28;20274;-75
2021/01/19 08:10:22;;;;;;;34.57;20.63;;;-3.30;99.90;;;;;;5036257;28;20174;-75
2021/01/19 08:12:58;;;;;;;34.20;19.67;;;-3.20;99.90;;;;;;5035903;28;20262;-74
2021/01/19 08:15:31;;;;;;;33.00;19.37;;;-3.30;99.90;;;;;;5035850;28;20171;-75
2021/01/19 08:18:00;;;;;;;35.97;19.77;;;-3.20;99.90;;;;;;5035508;28;20202;-74
2021/01/19 08:20:31;;;;;;;37.37;21.70;;;-3.20;99.90;;;;;;5035674;28;20220;-75
2021/01/19 08:23:24;;;;;;;37.30;21.53;;;-3.10;99.90;;;;;;5032605;28;20167;-75
2021/01/19 08:25:49;;;;;;;38.27;21.67;;;-3.10;99.90;;;;;;5035711;28;20687;-75
2021/01/19 08:28:15;;;;;;;38.50;21.90;;;-3.00;99.90;;;;;;5026739;28;20218;-75
2021/01/19 08:30:44;;;;;;;39.93;23.57;;;-2.90;99.90;;;;;;5018226;28;20187;-73
2021/01/19 08:33:12;;;;;;;39.07;23.33;;;-2.90;99.90;;;;;;5017786;28;20182;-75
2021/01/19 08:35:38;;;;;;;35.97;22.63;;;-2.80;99.90;;;;;;5035724;28;20186;-74
2021/01/19 08:38:04;;;;;;;42.67;24.50;;;-2.70;99.90;;;;;;5017408;28;20199;-75
2021/01/19 08:40:35;;;;;;;40.50;23.63;;;-2.60;99.90;;;;;;5017541;28;20163;-73
2021/01/19 08:43:05;;;;;;;35.77;23.17;;;-2.50;99.90;;;;;;5035582;28;20190;-75
2021/01/19 08:45:33;;;;;;;38.27;23.53;;;-2.30;99.90;;;;;;5035463;28;20274;-73
2021/01/19 08:48:01;;;;;;;38.50;23.60;;;-2.20;99.90;;;;;;5035178;28;20190;-73
2021/01/19 08:50:28;;;;;;;32.77;22.53;;;-2.00;99.90;;;;;;5035132;28;20178;-75
2021/01/19 08:52:54;;;;;;;30.40;21.40;;;-1.80;99.90;;;;;;5035240;28;20179;-76
2021/01/19 08:55:27;;;;;;;32.73;20.40;;;-1.60;99.90;;;;;;5035395;28;20263;-76
2021/01/19 08:57:59;;;;;;;29.87;20.60;;;-1.40;99.90;;;;;;5017155;28;20296;-75
2021/01/19 09:00:38;;;;;;;32.40;21.70;;;-1.40;99.90;;;;;;5035235;28;20175;-75
2021/01/19 09:03:11;;;;;;;29.07;19.27;;;-1.20;99.90;;;;;;5017206;28;20263;-75
2021/01/19 09:05:37;;;;;;;29.10;18.90;;;-1.10;99.90;;;;;;5034206;28;20703;-75
2021/01/19 09:08:16;;;;;;;25.00;17.50;;;-1.00;99.90;;;;;;5016875;28;20204;-75
2021/01/19 09:10:47;;;;;;;27.00;17.13;;;-0.90;99.90;;;;;;5035140;28;20185;-75
2021/01/19 09:13:14;;;;;;;19.77;15.20;;;-0.70;99.90;;;;;;5034905;28;20181;-75
2021/01/19 09:15:42;;;;;;;19.63;14.77;;;-0.60;99.90;;;;;;5034998;28;20180;-76
2021/01/19 09:18:13;;;;;;;20.10;14.67;;;-0.50;99.90;;;;;;5016934;28;20587;-75
2021/01/19 09:20:40;;;;;;;19.03;14.43;;;-0.40;99.90;;;;;;5034720;28;20667;-75
2021/01/19 09:23:30;;;;;;;17.33;14.80;;;-0.30;99.90;;;;;;5034735;28;20248;-75
2021/01/19 09:26:05;;;;;;;21.37;14.67;;;-0.30;99.90;;;;;;5034559;28;20648;-75
2021/01/19 09:28:35;;;;;;;17.20;15.07;;;-0.20;99.90;;;;;;5071912;23;20230;-72
2021/01/19 09:31:27;;;;;;;16.13;13.20;;;-0.20;99.90;;;;;;5055012;28;20177;-72
2021/01/19 09:33:54;;;;;;;17.17;14.07;;;-0.20;99.90;;;;;;5052002;28;20186;-71
2021/01/19 09:36:21;;;;;;;15.43;12.80;;;0.00;99.90;;;;;;5053903;28;20671;-71
2021/01/19 09:38:51;;;;;;;17.40;14.50;;;0.00;99.90;;;;;;5054826;28;20208;-71
2021/01/19 09:41:24;;;;;;;15.67;13.27;;;0.10;99.90;;;;;;5055517;28;20554;-72
2021/01/19 09:43:54;;;;;;;15.40;13.00;;;0.10;99.90;;;;;;5053644;28;20206;-71
2021/01/19 09:46:26;;;;;;;20.03;13.57;;;0.20;99.90;;;;;;5051720;28;20192;-72
2021/01/19 09:48:55;;;;;;;18.80;12.83;;;0.20;99.90;;;;;;5054925;28;20672;-70
2021/01/19 09:51:26;;;;;;;15.60;12.87;;;0.30;99.90;;;;;;5054568;28;20200;-71
2021/01/19 09:53:56;;;;;;;14.67;12.83;;;0.40;99.90;;;;;;5054567;28;20260;-70
2021/01/19 09:56:23;;;;;;;17.80;13.80;;;0.50;99.90;;;;;;5054904;28;20493;-71
2021/01/19 09:59:04;;;;;;;15.07;12.27;;;0.50;99.90;;;;;;5053896;28;20214;-71
2021/01/19 10:01:29;;;;;;;18.77;13.43;;;0.50;99.90;;;;;;5054414;28;20169;-72
2021/01/19 10:03:55;;;;;;;15.63;12.37;;;0.60;99.90;;;;;;5054244;28;20232;-71
2021/01/19 10:06:24;;;;;;;14.63;12.13;;;0.60;99.90;;;;;;5053794;28;20173;-71
2021/01/19 10:08:52;;;;;;;11.17;10.07;;;0.60;99.90;;;;;;5054053;28;20247;-71
2021/01/19 10:11:30;;;;;;;12.43;11.13;;;0.60;99.90;;;;;;5054081;28;20327;-70
2021/01/19 10:13:56;;;;;;;12.50;11.20;;;0.70;99.90;;;;;;5054060;28;20201;-71
2021/01/19 10:16:27;;;;;;;13.70;10.80;;;0.70;99.90;;;;;;5053524;28;20698;-70
2021/01/19 10:18:53;;;;;;;13.13;11.47;;;0.80;99.90;;;;;;5052111;28;20201;-72
2021/01/19 10:21:30;;;;;;;12.80;10.87;;;0.70;99.90;;;;;;5053939;28;20185;-73
2021/01/19 10:23:56;;;;;;;11.50;10.30;;;0.80;99.90;;;;;;5052262;28;20208;-72
2021/01/19 10:26:28;;;;;;;11.50;9.50;;;0.80;99.90;;;;;;5053680;28;20224;-71
2021/01/19 10:28:57;;;;;;;11.30;9.60;;;0.90;99.90;;;;;;5045012;28;20220;-72
2021/01/19 10:31:27;;;;;;;11.50;10.20;;;0.90;99.90;;;;;;5053138;28;20173;-73
2021/01/19 10:34:01;;;;;;;12.00;9.57;;;0.90;99.90;;;;;;5043460;28;20710;-71
2021/01/19 10:36:29;;;;;;;10.57;9.43;;;0.90;99.90;;;;;;5053317;28;20186;-71
2021/01/19 10:39:05;;;;;;;11.27;9.33;;;1.00;99.90;;;;;;5052193;28;20552;-72
2021/01/19 10:41:32;;;;;;;9.70;8.63;;;1.00;99.90;;;;;;5052081;28;20315;-73
2021/01/19 10:43:58;;;;;;;11.20;9.47;;;1.00;99.90;;;;;;5069259;28;20170;-71
2021/01/19 10:46:27;;;;;;;9.57;8.77;;;1.00;99.90;;;;;;5053569;28;20196;-71
2021/01/19 10:49:15;;;;;;;10.77;9.77;;;1.00;99.90;;;;;;5053168;28;20197;-72
2021/01/19 10:51:43;;;;;;;10.27;8.70;;;1.00;99.90;;;;;;5042379;28;20672;-72
2021/01/19 10:54:11;;;;;;;10.23;8.27;;;1.00;99.90;;;;;;5047077;28;20174;-72
2021/01/19 10:56:41;;;;;;;12.27;7.70;;;1.10;99.90;;;;;;5041823;28;20184;-71
2021/01/19 10:59:08;;;;;;;9.77;8.33;;;1.00;99.90;;;;;;5044590;28;20757;-70
2021/01/19 11:01:35;;;;;;;10.77;8.47;;;1.00;99.90;;;;;;5036307;28;20184;-70
2021/01/19 11:04:02;;;;;;;11.67;9.30;;;1.00;99.90;;;;;;5043153;28;20857;-70
2021/01/19 11:06:37;;;;;;;10.47;7.63;;;1.00;99.90;;;;;;5036727;28;20170;-70
2021/01/19 11:09:07;;;;;;;9.43;8.53;;;1.00;99.90;;;;;;5038136;28;20224;-70
2021/01/19 11:11:37;;;;;;;9.63;8.70;;;1.10;99.90;;;;;;5045758;28;20182;-71
2021/01/19 11:14:04;;;;;;;9.87;8.10;;;1.10;99.90;;;;;;5034456;28;20239;-71
2021/01/19 11:16:37;;;;;;;13.00;7.97;;;1.20;99.90;;;;;;5038234;28;20198;-71
2021/01/19 11:19:05;;;;;;;9.23;7.37;;;1.20;99.90;;;;;;5036720;28;20220;-72
2021/01/19 11:21:32;;;;;;;8.67;6.53;;;1.20;99.90;;;;;;5045732;28;20212;-70
2021/01/19 11:24:00;;;;;;;9.00;8.10;;;1.20;99.90;;;;;;5040775;28;20178;-72
2021/01/19 11:26:26;;;;;;;8.23;7.33;;;1.20;99.90;;;;;;5041194;28;20189;-72
2021/01/19 11:28:52;;;;;;;7.90;7.17;;;1.30;99.90;;;;;;5046582;28;20205;-72
2021/01/19 11:31:19;;;;;;;9.20;8.27;;;1.30;99.90;;;;;;5045170;28;20226;-70
2021/01/19 11:33:45;;;;;;;8.30;7.03;;;1.40;99.90;;;;;;5041949;28;20213;-72
2021/01/19 11:36:20;;;;;;;7.47;6.83;;;1.40;99.90;;;;;;5041399;28;20198;-72
2021/01/19 11:38:47;;;;;;;8.23;7.43;;;1.50;99.90;;;;;;5038971;28;20775;-73
2021/01/19 11:41:18;;;;;;;8.00;7.20;;;1.50;99.90;;;;;;5059828;28;20281;-73
2021/01/19 11:43:44;;;;;;;7.33;6.60;;;1.50;99.90;;;;;;5053738;28;21866;-73
2021/01/19 11:46:10;;;;;;;7.77;7.07;;;1.60;99.90;;;;;;5048842;28;20178;-72
2021/01/19 11:48:36;;;;;;;9.70;7.10;;;1.60;99.90;;;;;;5049134;28;20266;-71
2021/01/19 11:51:03;;;;;;;10.37;7.10;;;1.60;99.90;;;;;;5048530;28;20204;-71
2021/01/19 11:53:29;;;;;;;7.60;6.80;;;1.60;99.90;;;;;;5046937;28;20267;-72
2021/01/19 11:55:57;;;;;;;7.70;6.90;;;1.70;99.90;;;;;;5047878;28;20257;-73
2021/01/19 11:58:22;;;;;;;7.67;6.80;;;1.70;99.90;;;;;;5055798;28;20218;-71
2021/01/19 12:00:49;;;;;;;8.87;7.07;;;1.70;99.90;;;;;;5054355;28;20475;-72
2021/01/19 12:03:18;;;;;;;7.80;6.97;;;1.80;99.90;;;;;;5045007;28;20184;-72
2021/01/19 12:05:44;;;;;;;7.53;6.00;;;1.80;99.90;;;;;;5059530;28;20186;-73
2021/01/19 12:08:10;;;;;;;7.73;6.23;;;1.80;99.90;;;;;;5048005;28;20303;-73
2021/01/19 12:10:37;;;;;;;7.47;6.77;;;1.90;99.90;;;;;;5059176;28;20233;-73
2021/01/19 12:13:07;;;;;;;7.80;7.07;;;1.90;99.90;;;;;;5053594;28;20190;-72
2021/01/19 12:15:33;;;;;;;7.33;6.57;;;1.90;99.90;;;;;;5047859;28;20247;-72
2021/01/19 12:17:59;;;;;;;7.27;6.43;;;1.90;99.90;;;;;;5050609;28;20687;-73
2021/01/19 12:20:25;;;;;;;7.17;6.47;;;1.90;99.90;;;;;;5051330;28;20667;-72
2021/01/19 12:22:50;;;;;;;8.07;6.10;;;1.90;99.90;;;;;;5050657;28;20181;-73
2021/01/19 12:25:16;;;;;;;7.97;6.60;;;1.90;99.90;;;;;;5052051;28;20184;-72
2021/01/19 12:27:42;;;;;;;6.90;6.20;;;1.90;99.90;;;;;;5046409;28;20218;-73
2021/01/19 12:30:08;;;;;;;7.83;6.43;;;2.00;99.90;;;;;;5053502;28;20575;-73
2021/01/19 12:32:35;;;;;;;6.00;5.40;;;2.00;99.90;;;;;;5052478;28;20186;-73
2021/01/19 12:35:01;;;;;;;6.77;6.07;;;2.00;99.90;;;;;;5055170;28;20269;-73
2021/01/19 12:37:26;;;;;;;7.50;5.30;;;2.10;99.90;;;;;;5053835;28;20201;-73
2021/01/19 12:39:52;;;;;;;7.30;5.83;;;2.10;99.90;;;;;;5055449;28;20188;-73
2021/01/19 12:42:18;;;;;;;7.60;5.80;;;2.00;99.90;;;;;;5054534;28;20170;-74
2021/01/19 12:44:44;;;;;;;6.43;5.83;;;2.10;99.90;;;;;;5056303;28;20671;-74
2021/01/19 12:47:09;;;;;;;7.30;5.40;;;2.20;99.90;;;;;;5055375;28;20232;-74
2021/01/19 12:49:35;;;;;;;6.83;5.70;;;2.20;99.90;;;;;;5054196;28;20730;-73
2021/01/19 12:52:07;;;;;;;5.93;4.97;;;2.20;99.90;;;;;;5055364;28;20190;-74